createdAt,value
2018-09-22T06:39:37.378Z,41.63
2018-09-22T06:42:05.996Z,31.97
2018-09-22T06:44:35.259Z,26.87
2018-09-22T06:47:04.136Z,24.10
2018-09-22T06:49:32.640Z,20.60
2018-09-22T06:52:01.221Z,21.83
2018-09-22T06:54:29.696Z,26.93
2018-09-22T06:56:58.221Z,22.10
2018-09-22T06:59:27.673Z,18.73
2018-09-22T07:01:56.149Z,18.77
2018-09-22T07:04:25.106Z,17.60
2018-09-22T07:06:54.406Z,18.37
2018-09-22T07:09:22.890Z,17.23
2018-09-22T07:11:51.400Z,16.40
2018-09-22T07:14:20.206Z,17.67
2018-09-22T07:16:49.079Z,18.43
2018-09-22T07:19:18.091Z,16.20
2018-09-22T07:21:51.973Z,17.27
2018-09-22T07:24:20.793Z,20.40
2018-09-22T07:26:49.813Z,16.07
2018-09-22T07:29:18.740Z,14.30
2018-09-22T07:31:49.046Z,25.80
2018-09-22T07:34:18.781Z,16.67
2018-09-22T07:36:48.502Z,19.48
2018-09-22T07:39:17.598Z,16.40
2018-09-22T07:41:46.610Z,20.43
2018-09-22T07:44:15.063Z,19.60
2018-09-22T07:46:43.941Z,16.67
2018-09-22T07:49:12.485Z,17.30
2018-09-22T07:51:40.978Z,17.13
2018-09-22T07:54:09.726Z,24.80
2018-09-22T07:56:38.459Z,18.23
2018-09-22T07:59:06.919Z,19.03
2018-09-22T08:01:35.595Z,17.77
2018-09-22T08:04:04.087Z,17.53
2018-09-22T08:06:32.535Z,18.47
2018-09-22T08:09:01.913Z,23.83
2018-09-22T08:11:30.639Z,15.57
2018-09-22T08:13:59.384Z,18.67
2018-09-22T08:16:28.169Z,17.37
2018-09-22T08:18:57.543Z,16.57
2018-09-22T08:21:26.661Z,20.43
2018-09-22T08:23:55.562Z,19.53
2018-09-22T08:26:24.368Z,17.97
2018-09-22T08:28:52.825Z,19.83
2018-09-22T08:31:22.130Z,16.00
2018-09-22T08:33:51.235Z,15.90
2018-09-22T08:36:20.496Z,16.70
2018-09-22T08:38:49.308Z,17.87
2018-09-22T08:41:18.198Z,18.07
2018-09-22T08:43:47.265Z,15.43
2018-09-22T08:46:16.120Z,15.67
2018-09-22T08:48:44.908Z,14.53
2018-09-22T08:51:13.755Z,18.23
2018-09-22T08:53:42.658Z,13.80
2018-09-22T08:56:11.450Z,13.93
2018-09-22T08:58:40.263Z,14.27
2018-09-22T09:01:09.117Z,15.13
2018-09-22T09:03:37.904Z,15.17
2018-09-22T09:06:06.588Z,14.50
2018-09-22T09:08:35.210Z,14.33
2018-09-22T09:11:04.071Z,15.70
2018-09-22T09:13:33.150Z,12.93
2018-09-22T09:16:02.156Z,12.97
2018-09-22T09:18:31.314Z,13.87
2018-09-22T09:21:00.023Z,13.80
2018-09-22T09:23:28.950Z,11.97
2018-09-22T09:25:57.569Z,12.40
2018-09-22T09:28:29.649Z,13.43
2018-09-22T09:30:58.188Z,13.97
2018-09-22T09:33:27.669Z,13.83
2018-09-22T09:35:56.941Z,15.40
2018-09-22T09:38:25.600Z,14.97
2018-09-22T09:40:54.443Z,14.80
2018-09-22T09:43:24.048Z,17.10
2018-09-22T09:45:53.733Z,13.90
2018-09-22T09:48:22.369Z,14.47
2018-09-22T09:50:51.256Z,14.63
2018-09-22T09:53:20.470Z,12.33
2018-09-22T09:55:49.582Z,13.80
2018-09-22T09:58:18.421Z,15.60
2018-09-22T10:00:47.734Z,13.60
2018-09-22T10:03:17.705Z,15.63
2018-09-22T10:05:47.540Z,14.40
2018-09-22T10:08:16.616Z,14.43
2018-09-22T10:10:46.036Z,13.97
2018-09-22T10:13:15.221Z,14.97
2018-09-22T10:15:44.107Z,15.53
2018-09-22T10:18:13.759Z,14.30
2018-09-22T10:20:42.575Z,15.43
2018-09-22T10:23:11.766Z,24.80
2018-09-22T10:25:41.126Z,18.80
2018-09-22T10:28:10.181Z,14.67
2018-09-22T10:30:38.727Z,17.43
2018-09-22T10:33:07.662Z,14.87
2018-09-22T10:35:36.730Z,15.43
2018-09-22T10:38:05.554Z,13.28
2018-09-22T10:40:34.035Z,12.05
2018-09-22T10:43:02.825Z,12.40
2018-09-22T10:45:31.699Z,11.93
2018-09-22T10:48:00.668Z,12.18
2018-09-22T10:50:29.836Z,12.50
2018-09-22T10:52:58.423Z,13.53
2018-09-22T10:55:27.266Z,12.03
2018-09-22T10:57:55.962Z,12.15
2018-09-22T11:00:24.851Z,12.28
2018-09-22T11:02:53.675Z,14.65
2018-09-22T11:05:22.730Z,14.00
2018-09-22T11:07:51.508Z,13.85
2018-09-22T11:10:20.414Z,12.82
2018-09-22T11:12:48.980Z,11.97
2018-09-22T11:15:17.454Z,12.00
2018-09-22T11:17:45.859Z,12.78
2018-09-22T11:20:14.643Z,13.20
2018-09-22T11:22:43.438Z,11.48
2018-09-22T11:25:12.438Z,11.80
2018-09-22T11:27:41.124Z,11.63
2018-09-22T11:30:09.806Z,10.80
2018-09-22T11:32:38.496Z,11.95
2018-09-22T11:35:07.654Z,12.03
2018-09-22T11:37:36.671Z,14.33
2018-09-22T11:40:05.824Z,11.45
2018-09-22T11:42:34.828Z,12.15
2018-09-22T11:45:03.649Z,11.93
2018-09-22T11:47:32.364Z,11.88
2018-09-22T11:50:01.197Z,11.97
2018-09-22T11:52:30.076Z,11.45
2018-09-22T11:54:59.005Z,11.25
2018-09-22T11:57:27.801Z,11.10
2018-09-22T11:59:56.475Z,11.90
2018-09-22T12:02:24.912Z,12.75
2018-09-22T12:04:53.346Z,11.48
2018-09-22T12:07:23.529Z,11.97
2018-09-22T12:09:52.058Z,11.83
2018-09-22T12:12:20.532Z,11.22
2018-09-22T12:14:49.057Z,10.80
2018-09-22T12:17:17.487Z,10.50
2018-09-22T12:19:46.957Z,10.63
2018-09-22T12:22:16.070Z,11.22
2018-09-22T12:24:44.967Z,11.25
2018-09-22T12:27:13.751Z,11.25
2018-09-22T12:29:42.655Z,10.80
2018-09-22T12:32:11.708Z,10.68
2018-09-22T12:34:40.457Z,11.40
2018-09-22T12:37:08.844Z,11.05
2018-09-22T12:39:37.244Z,11.38
2018-09-22T12:42:05.811Z,11.75
2018-09-22T12:44:34.266Z,13.75
2018-09-22T12:47:02.725Z,11.30
2018-09-22T12:49:31.168Z,10.45
2018-09-22T12:51:59.949Z,12.00
2018-09-22T12:54:28.596Z,12.18
2018-09-22T12:56:57.110Z,12.23
2018-09-22T12:59:25.691Z,11.67
2018-09-22T13:01:54.163Z,13.60
2018-09-22T13:04:22.555Z,12.67
2018-09-22T13:06:51.025Z,12.07
2018-09-22T13:09:21.103Z,11.77
2018-09-22T13:11:49.655Z,12.03
2018-09-22T13:14:19.192Z,11.90
2018-09-22T13:16:47.693Z,12.20
2018-09-22T13:19:17.210Z,11.73
2018-09-22T13:21:45.756Z,12.17
2018-09-22T13:24:14.350Z,12.40
2018-09-22T13:26:43.396Z,12.00
2018-09-22T13:29:11.854Z,12.60
2018-09-22T13:31:40.407Z,11.50
2018-09-22T13:34:08.832Z,12.30
2018-09-22T13:36:37.377Z,11.83
2018-09-22T13:39:09.188Z,11.30
2018-09-22T13:41:37.745Z,12.40
2018-09-22T13:44:06.176Z,11.67
2018-09-22T13:46:34.748Z,12.27
2018-09-22T13:49:03.280Z,12.53
2018-09-22T13:51:31.751Z,11.73
2018-09-22T13:54:00.308Z,12.30
2018-09-22T13:56:29.001Z,11.73
2018-09-22T13:58:57.851Z,12.27
2018-09-22T14:01:26.277Z,12.10
2018-09-22T14:03:54.774Z,12.00
2018-09-22T14:06:23.272Z,13.83
2018-09-22T14:08:51.733Z,12.10
2018-09-22T14:11:20.188Z,11.53
2018-09-22T14:13:48.690Z,11.63
2018-09-22T14:16:17.274Z,12.00
2018-09-22T14:18:46.050Z,11.33
2018-09-22T14:21:15.343Z,11.17
2018-09-22T14:23:43.810Z,11.57
2018-09-22T14:26:12.296Z,12.97
2018-09-22T14:28:40.755Z,13.37
2018-09-22T14:31:09.239Z,10.87
2018-09-22T14:33:37.688Z,10.83
2018-09-22T14:36:06.123Z,11.17
2018-09-22T14:38:34.567Z,12.70
2018-09-22T14:41:03.035Z,11.77
2018-09-22T14:43:31.498Z,11.73
2018-09-22T14:46:00.033Z,13.67
2018-09-22T14:48:28.501Z,12.17
2018-09-22T14:50:57.378Z,12.50
2018-09-22T14:53:26.763Z,11.83
2018-09-22T14:55:55.183Z,12.73
2018-09-22T14:58:23.722Z,12.37
2018-09-22T15:00:52.160Z,13.30
2018-09-22T15:03:20.620Z,14.60
2018-09-22T15:05:50.125Z,14.67
2018-09-22T15:08:18.773Z,11.87
2018-09-22T15:10:47.220Z,11.23
2018-09-22T15:13:16.676Z,12.73
2018-09-22T15:15:46.236Z,11.97
2018-09-22T15:18:14.703Z,12.30
2018-09-22T15:20:43.906Z,11.67
2018-09-22T15:23:12.352Z,12.30
2018-09-22T15:25:40.774Z,11.03
2018-09-22T15:28:09.340Z,11.43
2018-09-22T15:30:37.920Z,12.33
2018-09-22T15:33:06.454Z,12.33
2018-09-22T15:35:34.987Z,12.10
2018-09-22T15:38:03.496Z,12.27
2018-09-22T15:40:32.105Z,11.33
2018-09-22T15:43:01.250Z,12.03
2018-09-22T15:45:29.746Z,12.60
2018-09-22T15:47:58.210Z,12.73
2018-09-22T15:50:26.639Z,12.20
2018-09-22T15:52:55.107Z,13.90
2018-09-22T15:55:23.649Z,14.83
2018-09-22T15:57:52.892Z,12.53
2018-09-22T16:00:21.795Z,13.43
2018-09-22T16:02:50.491Z,13.17
2018-09-22T16:05:18.971Z,14.03
2018-09-22T16:07:47.381Z,16.13
2018-09-22T16:10:15.775Z,11.93
2018-09-22T16:12:44.398Z,13.30
2018-09-22T16:15:12.867Z,13.37
2018-09-22T16:17:41.864Z,13.40
2018-09-22T16:20:10.277Z,13.87
2018-09-22T16:22:38.746Z,14.10
2018-09-22T16:25:07.451Z,12.27
2018-09-22T16:27:36.134Z,12.83
2018-09-22T16:30:05.433Z,12.40
2018-09-22T16:32:33.929Z,12.87
2018-09-22T16:35:02.525Z,15.27
2018-09-22T16:37:30.964Z,15.03
2018-09-22T16:39:59.832Z,14.87
2018-09-22T16:42:28.300Z,15.23
2018-09-22T16:44:56.829Z,17.30
2018-09-22T16:47:25.678Z,17.27
2018-09-22T16:49:54.212Z,17.33
2018-09-22T16:52:22.604Z,15.17
2018-09-22T16:54:51.062Z,15.50
2018-09-22T16:57:19.499Z,14.20
2018-09-22T16:59:47.945Z,16.03
2018-09-22T17:02:16.499Z,14.60
2018-09-22T17:04:45.042Z,15.13
2018-09-22T17:07:13.419Z,17.70
2018-09-22T17:09:42.618Z,14.40
2018-09-22T17:12:11.916Z,14.23
2018-09-22T17:14:40.321Z,15.10
2018-09-22T17:17:08.766Z,14.00
2018-09-22T17:19:37.396Z,15.43
2018-09-22T17:22:05.967Z,14.60
2018-09-22T17:24:34.336Z,15.57
2018-09-22T17:27:02.789Z,14.60
2018-09-22T17:29:31.330Z,15.13
2018-09-22T17:32:00.831Z,15.20
2018-09-22T17:34:29.426Z,15.60
2018-09-22T17:36:57.907Z,15.90
2018-09-22T17:39:26.307Z,17.67
2018-09-22T17:41:55.685Z,18.10
2018-09-22T17:44:24.538Z,16.50
2018-09-22T17:46:53.395Z,18.63
2018-09-22T17:49:22.034Z,21.57
2018-09-22T17:51:51.041Z,17.53
2018-09-22T17:54:19.533Z,16.97
2018-09-22T17:56:48.093Z,17.70
2018-09-22T17:59:17.707Z,17.93
2018-09-22T18:01:46.539Z,16.03
2018-09-22T18:04:15.316Z,16.77
2018-09-22T18:06:44.287Z,16.90
2018-09-22T18:09:13.257Z,18.33
2018-09-22T18:11:42.045Z,17.13
2018-09-22T18:14:17.304Z,16.10
2018-09-22T18:16:45.796Z,15.40
2018-09-22T18:19:14.180Z,15.77
2018-09-22T18:21:42.659Z,16.43
2018-09-22T18:24:11.153Z,15.97
2018-09-22T18:26:39.645Z,14.20
2018-09-22T18:29:09.094Z,17.13
2018-09-22T18:31:37.533Z,14.10
2018-09-22T18:34:06.063Z,13.80
2018-09-22T18:36:34.569Z,15.43
2018-09-22T18:39:03.999Z,13.30
2018-09-22T18:41:32.400Z,13.37
2018-09-22T18:44:01.212Z,14.67
2018-09-22T18:46:29.969Z,12.80
2018-09-22T18:48:58.718Z,16.70
2018-09-22T18:51:27.447Z,14.50
2018-09-22T18:53:55.951Z,11.77
2018-09-22T18:56:24.463Z,14.90
2018-09-22T18:58:52.913Z,14.43
2018-09-22T19:01:21.323Z,16.37
2018-09-22T19:03:50.351Z,12.70
2018-09-22T19:06:18.843Z,18.10
2018-09-22T19:08:47.305Z,12.73
2018-09-22T19:11:15.801Z,12.70
2018-09-22T19:13:47.891Z,11.97
2018-09-22T19:16:34.802Z,11.83
2018-09-22T19:19:06.768Z,16.53
2018-09-22T19:21:39.435Z,17.63
2018-09-22T19:24:13.753Z,20.43
2018-09-22T19:26:46.481Z,28.73
2018-09-22T19:29:51.983Z,25.03
2018-09-22T19:32:27.292Z,26.63
2018-09-22T19:35:04.670Z,29.13
2018-09-22T19:37:42.420Z,25.57
2018-09-22T19:40:24.190Z,24.70
2018-09-22T19:43:03.177Z,25.23
2018-09-22T19:45:40.809Z,21.77
2018-09-22T19:48:21.729Z,18.00
2018-09-22T19:50:59.959Z,18.93
2018-09-22T19:53:32.432Z,19.97
2018-09-22T19:56:04.377Z,20.57
2018-09-22T19:58:36.183Z,17.00
2018-09-22T20:01:08.351Z,17.63
2018-09-22T20:03:41.207Z,22.90
2018-09-22T20:06:13.621Z,22.07
2018-09-22T20:08:45.795Z,25.40
2018-09-22T20:11:18.160Z,23.97
2018-09-22T20:13:50.081Z,34.53
2018-09-22T20:16:21.518Z,36.33
2018-09-22T20:18:52.890Z,27.37
2018-09-22T20:21:24.117Z,23.60
2018-09-22T20:23:54.808Z,25.53
2018-09-22T20:26:24.144Z,25.30
2018-09-22T20:28:52.716Z,22.33
2018-09-22T20:31:21.404Z,25.33
2018-09-22T20:33:50.714Z,25.63
2018-09-22T20:36:19.627Z,24.63
2018-09-22T20:38:48.533Z,30.07
2018-09-22T20:41:17.301Z,35.90
2018-09-22T20:43:46.044Z,31.37
2018-09-22T20:46:15.396Z,34.40
2018-09-22T20:48:45.386Z,24.63
2018-09-22T20:51:13.833Z,20.53
2018-09-22T20:53:42.381Z,27.80
2018-09-22T20:56:11.494Z,19.57
2018-09-22T20:58:39.974Z,17.17
2018-09-22T21:01:09.769Z,21.23
2018-09-22T21:03:38.984Z,17.70
2018-09-22T21:06:07.515Z,18.73
2018-09-22T21:08:35.959Z,20.47
2018-09-22T21:11:04.432Z,19.23
2018-09-22T21:13:33.255Z,15.40
2018-09-22T21:16:02.311Z,14.33
2018-09-22T21:18:31.302Z,16.93
2018-09-22T21:21:00.034Z,12.40
2018-09-22T21:23:28.684Z,13.97
2018-09-22T21:25:57.390Z,10.10
2018-09-22T21:28:26.243Z,13.27
2018-09-22T21:30:55.367Z,12.37
2018-09-22T21:33:24.232Z,10.20
2018-09-22T21:35:53.269Z,11.80
2018-09-22T21:38:21.711Z,15.07
2018-09-22T21:40:50.242Z,13.93
2018-09-22T21:43:19.999Z,15.13
2018-09-22T21:45:48.956Z,15.13
2018-09-22T21:48:17.692Z,13.80
2018-09-22T21:50:47.159Z,18.10
2018-09-22T21:53:16.277Z,15.07
2018-09-22T21:55:44.985Z,13.03
2018-09-22T21:58:13.887Z,11.60
2018-09-22T22:00:42.844Z,10.70
2018-09-22T22:03:11.272Z,11.47
2018-09-22T22:05:40.047Z,10.67
2018-09-22T22:08:08.749Z,9.37
2018-09-22T22:10:37.332Z,9.53
2018-09-22T22:13:05.794Z,11.03
2018-09-22T22:15:35.044Z,10.47
2018-09-22T22:18:03.819Z,11.17
2018-09-22T22:20:33.044Z,11.90
2018-09-22T22:23:02.307Z,10.00
2018-09-22T22:25:31.570Z,10.10
2018-09-22T22:28:00.637Z,9.57
2018-09-22T22:30:29.729Z,10.83
2018-09-22T22:32:58.444Z,11.80
2018-09-22T22:35:27.000Z,11.53
2018-09-22T22:37:55.890Z,10.47
2018-09-22T22:40:24.784Z,10.93
2018-09-22T22:42:53.396Z,13.77
2018-09-22T22:45:21.899Z,10.73
2018-09-22T22:47:50.683Z,10.40
2018-09-22T22:50:19.508Z,10.50
2018-09-22T22:52:48.301Z,10.40
2018-09-22T22:55:17.621Z,8.37
2018-09-22T22:57:47.499Z,8.60
2018-09-22T23:00:16.254Z,9.07
2018-09-22T23:02:46.034Z,8.23
2018-09-22T23:05:15.890Z,8.93
2018-09-22T23:07:44.462Z,9.63
2018-09-22T23:10:13.839Z,8.50
2018-09-22T23:12:42.612Z,7.83
2018-09-22T23:15:11.446Z,9.40
2018-09-22T23:17:40.440Z,7.27
2018-09-22T23:20:09.401Z,7.73
2018-09-22T23:22:38.265Z,8.57
2018-09-22T23:25:07.204Z,8.50
2018-09-22T23:27:35.699Z,7.80
2018-09-22T23:30:04.257Z,8.20
2018-09-22T23:32:33.617Z,13.47
2018-09-22T23:35:02.435Z,8.53
2018-09-22T23:37:32.573Z,9.40
2018-09-22T23:40:01.438Z,9.40
2018-09-22T23:42:30.269Z,8.23
2018-09-22T23:44:59.113Z,8.13
2018-09-22T23:47:27.912Z,8.30
2018-09-22T23:49:56.980Z,9.17
2018-09-22T23:52:26.429Z,9.90
2018-09-22T23:54:54.800Z,7.47
2018-09-22T23:57:23.753Z,7.20
2018-09-22T23:59:52.744Z,8.83
